createdAt,value
2023-05-19T00:01:22.183Z,83.60
2023-05-19T00:03:57.672Z,84.20
2023-05-19T00:06:34.031Z,84.10
2023-05-19T00:09:09.962Z,84.20
2023-05-19T00:11:39.755Z,84.40
2023-05-19T00:14:10.220Z,84.30
2023-05-19T00:16:39.130Z,84.50
2023-05-19T00:19:10.380Z,84.50
2023-05-19T00:21:41.429Z,84.60
2023-05-19T00:24:08.842Z,84.70
2023-05-19T00:26:36.266Z,84.80
2023-05-19T00:29:03.901Z,84.80
2023-05-19T00:31:31.866Z,84.90
2023-05-19T00:33:59.196Z,85.10
2023-05-19T00:36:26.663Z,85.00
2023-05-19T00:38:53.907Z,85.20
2023-05-19T00:41:21.203Z,85.30
2023-05-19T00:43:48.551Z,85.60
2023-05-19T00:46:16.101Z,85.70
2023-05-19T00:48:45.565Z,85.80
2023-05-19T00:51:16.979Z,86.00
2023-05-19T00:53:49.416Z,86.30
2023-05-19T00:56:18.538Z,86.40
2023-05-19T00:58:47.120Z,86.60
2023-05-19T01:01:17.415Z,86.70
2023-05-19T01:03:45.438Z,86.90
2023-05-19T01:06:12.912Z,87.10
2023-05-19T01:08:40.257Z,87.20
2023-05-19T01:11:08.748Z,87.30
2023-05-19T01:13:37.173Z,87.50
2023-05-19T01:16:33.948Z,87.70
2023-05-19T01:19:31.176Z,87.60
2023-05-19T01:22:27.685Z,87.60
2023-05-19T01:25:35.483Z,87.70
2023-05-19T01:28:22.319Z,88.00
2023-05-19T01:30:55.997Z,88.70
2023-05-19T01:33:24.801Z,88.40
2023-05-19T01:35:54.943Z,88.70
2023-05-19T01:38:25.074Z,89.00
2023-05-19T01:40:55.103Z,89.10
2023-05-19T01:43:27.582Z,89.50
2023-05-19T01:45:57.490Z,89.70
2023-05-19T01:48:26.691Z,89.80
2023-05-19T01:50:55.053Z,90.20
2023-05-19T01:53:22.350Z,90.30
2023-05-19T01:55:56.538Z,90.70
2023-05-19T01:58:41.761Z,90.80
2023-05-19T02:01:51.691Z,91.20
2023-05-19T02:04:56.232Z,91.10
2023-05-19T02:07:41.627Z,91.40
2023-05-19T02:10:21.152Z,91.30
2023-05-19T02:12:53.441Z,91.40
2023-05-19T02:15:40.353Z,91.60
2023-05-19T02:18:11.924Z,91.70
2023-05-19T02:20:40.815Z,91.90
2023-05-19T02:23:08.139Z,92.10
2023-05-19T02:25:35.557Z,92.10
2023-05-19T02:28:02.996Z,92.20
2023-05-19T02:30:32.152Z,92.30
2023-05-19T02:33:00.583Z,92.30
2023-05-19T02:35:28.168Z,92.30
2023-05-19T02:37:55.491Z,92.30
2023-05-19T02:40:23.061Z,92.30
2023-05-19T02:42:50.458Z,92.30
2023-05-19T02:45:17.868Z,92.20
2023-05-19T02:47:45.262Z,92.20
2023-05-19T02:50:12.632Z,92.20
2023-05-19T02:52:39.962Z,92.30
2023-05-19T02:55:07.872Z,92.50
2023-05-19T02:57:35.804Z,92.20
2023-05-19T03:00:03.669Z,92.20
2023-05-19T03:02:33.444Z,92.30
2023-05-19T03:05:02.001Z,92.30
2023-05-19T03:07:29.187Z,92.40
2023-05-19T03:09:56.538Z,92.30
2023-05-19T03:12:23.893Z,92.30
2023-05-19T03:14:51.265Z,92.20
2023-05-19T03:17:18.640Z,92.20
2023-05-19T03:19:48.903Z,92.20
2023-05-19T03:22:16.302Z,92.10
2023-05-19T03:24:43.653Z,92.10
2023-05-19T03:27:12.622Z,92.10
2023-05-19T03:29:39.962Z,92.40
2023-05-19T03:32:07.713Z,92.00
2023-05-19T03:34:35.542Z,91.90
2023-05-19T03:37:02.856Z,91.90
2023-05-19T03:39:30.124Z,91.90
2023-05-19T03:41:57.439Z,92.00
2023-05-19T03:44:24.791Z,92.00
2023-05-19T03:46:52.216Z,91.90
2023-05-19T03:49:19.492Z,92.00
2023-05-19T03:51:47.122Z,92.00
2023-05-19T03:54:14.464Z,91.90
2023-05-19T03:56:43.698Z,91.90
2023-05-19T03:59:11.035Z,91.90
2023-05-19T04:01:38.398Z,91.90
2023-05-19T04:04:05.805Z,91.80
2023-05-19T04:06:34.019Z,91.90
2023-05-19T04:09:05.207Z,91.80
2023-05-19T04:11:32.412Z,91.70
2023-05-19T04:13:59.698Z,91.60
2023-05-19T04:16:26.998Z,91.50
2023-05-19T04:18:54.370Z,91.50
2023-05-19T04:21:22.550Z,91.20
2023-05-19T04:23:50.012Z,91.10
2023-05-19T04:26:18.156Z,91.00
2023-05-19T04:28:45.970Z,91.10
2023-05-19T04:31:16.179Z,91.00
2023-05-19T04:33:43.701Z,90.90
2023-05-19T04:36:11.536Z,90.70
2023-05-19T04:38:39.998Z,90.50
2023-05-19T04:41:11.028Z,90.50
2023-05-19T04:43:44.620Z,90.60
2023-05-19T04:46:15.892Z,90.60
2023-05-19T04:48:50.761Z,90.50
2023-05-19T04:51:30.837Z,90.30
2023-05-19T04:54:03.652Z,90.00
2023-05-19T04:56:31.125Z,89.70
2023-05-19T04:58:58.432Z,89.80
2023-05-19T05:01:26.466Z,89.60
2023-05-19T05:03:55.883Z,89.80
2023-05-19T05:06:23.267Z,89.60
2023-05-19T05:08:52.421Z,89.40
2023-05-19T05:11:20.707Z,89.00
2023-05-19T05:13:48.662Z,88.30
2023-05-19T05:16:19.304Z,88.20
2023-05-19T05:18:47.311Z,88.20
2023-05-19T05:21:15.141Z,87.70
2023-05-19T05:23:42.868Z,87.70
2023-05-19T05:26:19.868Z,87.90
2023-05-19T05:28:47.566Z,87.80
2023-05-19T05:31:15.306Z,87.50
2023-05-19T05:33:43.930Z,87.50
2023-05-19T05:36:11.398Z,87.40
2023-05-19T05:38:38.820Z,86.90
2023-05-19T05:41:06.309Z,86.00
2023-05-19T05:43:33.664Z,85.30
2023-05-19T05:46:01.147Z,85.40
2023-05-19T05:48:29.280Z,85.50
2023-05-19T05:50:58.435Z,84.80
2023-05-19T05:53:30.934Z,84.70
2023-05-19T05:55:58.833Z,84.30
2023-05-19T05:58:26.203Z,83.30
2023-05-19T06:00:57.652Z,82.90
2023-05-19T06:03:26.241Z,83.20
2023-05-19T06:05:53.620Z,83.00
2023-05-19T06:08:21.319Z,82.30
2023-05-19T06:10:48.805Z,82.80
2023-05-19T06:13:18.879Z,82.00
2023-05-19T06:15:46.494Z,82.00
2023-05-19T06:18:13.886Z,81.90
2023-05-19T06:20:41.449Z,81.80
2023-05-19T06:23:08.842Z,81.80
2023-05-19T06:25:36.381Z,81.80
2023-05-19T06:28:03.768Z,81.20
2023-05-19T06:30:35.926Z,80.90
2023-05-19T06:33:04.989Z,80.90
2023-05-19T06:35:32.664Z,81.00
2023-05-19T06:38:00.050Z,81.00
2023-05-19T06:40:27.413Z,81.00
2023-05-19T06:42:54.940Z,81.00
2023-05-19T06:45:23.955Z,80.70
2023-05-19T06:47:51.414Z,80.40
2023-05-19T06:50:19.123Z,79.70
2023-05-19T06:52:47.245Z,79.10
2023-05-19T06:55:14.676Z,78.40
2023-05-19T06:57:42.127Z,78.80
2023-05-19T07:00:13.433Z,78.30
2023-05-19T07:02:42.652Z,77.50
2023-05-19T07:05:10.442Z,76.60
2023-05-19T07:07:37.841Z,76.60
2023-05-19T07:10:06.074Z,76.40
2023-05-19T07:12:36.295Z,74.40
2023-05-19T07:15:04.053Z,74.60
2023-05-19T07:17:31.481Z,75.00
2023-05-19T07:19:58.973Z,74.20
2023-05-19T07:22:26.420Z,73.80
2023-05-19T07:24:53.797Z,72.70
2023-05-19T07:27:22.231Z,69.20
2023-05-19T07:29:49.467Z,69.20
2023-05-19T07:32:20.105Z,70.30
2023-05-19T07:34:48.645Z,70.20
2023-05-19T07:37:18.665Z,70.20
2023-05-19T07:39:46.206Z,70.30
2023-05-19T07:42:13.590Z,70.60
2023-05-19T07:44:40.967Z,70.80
2023-05-19T07:47:08.306Z,70.90
2023-05-19T07:49:37.011Z,71.00
2023-05-19T07:52:04.439Z,71.00
2023-05-19T07:54:31.939Z,71.00
2023-05-19T07:56:59.438Z,71.20
2023-05-19T07:59:26.806Z,71.60
2023-05-19T08:01:54.148Z,71.90
2023-05-19T08:04:21.657Z,71.90
2023-05-19T08:06:49.118Z,72.10
2023-05-19T08:09:16.638Z,72.00
2023-05-19T08:11:45.124Z,72.10
2023-05-19T08:14:13.392Z,72.20
2023-05-19T08:16:42.406Z,72.30
2023-05-19T08:19:09.972Z,72.40
2023-05-19T08:21:37.657Z,72.70
2023-05-19T08:24:05.270Z,73.00
2023-05-19T08:26:32.650Z,73.10
2023-05-19T08:29:00.095Z,73.20
2023-05-19T08:31:27.970Z,73.20
2023-05-19T08:33:55.602Z,73.70
2023-05-19T08:36:23.046Z,73.90
2023-05-19T08:38:50.393Z,74.40
2023-05-19T08:41:18.593Z,74.60
2023-05-19T08:43:46.056Z,74.80
2023-05-19T08:46:17.606Z,74.70
2023-05-19T08:48:48.354Z,74.80
2023-05-19T08:51:41.864Z,75.00
2023-05-19T08:54:18.118Z,75.10
2023-05-19T08:56:46.648Z,75.50
2023-05-19T08:59:15.362Z,75.60
2023-05-19T09:01:46.557Z,75.60
2023-05-19T09:04:15.686Z,76.00
2023-05-19T09:06:45.193Z,76.20
2023-05-19T09:09:43.331Z,76.10
2023-05-19T09:12:20.561Z,76.00
2023-05-19T09:14:48.655Z,76.40
2023-05-19T09:17:16.541Z,76.50
2023-05-19T09:19:48.179Z,76.50
2023-05-19T09:22:19.279Z,76.40
2023-05-19T09:24:48.321Z,76.30
2023-05-19T09:27:22.996Z,76.50
2023-05-19T09:29:51.047Z,76.40
2023-05-19T09:32:28.030Z,76.30
2023-05-19T09:34:55.539Z,75.90
2023-05-19T09:37:24.627Z,75.60
2023-05-19T09:39:53.309Z,75.50
2023-05-19T09:42:28.388Z,74.30
2023-05-19T09:45:03.563Z,74.40
2023-05-19T09:47:39.454Z,74.00
2023-05-19T09:50:10.047Z,72.90
2023-05-19T09:52:44.027Z,72.30
2023-05-19T09:55:13.982Z,72.00
2023-05-19T09:57:41.566Z,71.40
2023-05-19T10:00:22.182Z,70.90
2023-05-19T10:02:51.508Z,70.50
2023-05-19T10:05:30.725Z,70.80
2023-05-19T10:12:32.105Z,69.30
2023-05-19T10:15:12.057Z,68.90
2023-05-19T10:17:41.566Z,68.30
2023-05-19T10:20:17.328Z,68.40
2023-05-19T10:22:46.134Z,67.70
2023-05-19T10:25:15.379Z,67.30
2023-05-19T10:27:48.507Z,67.20
2023-05-19T10:30:20.763Z,66.30
2023-05-19T10:32:52.204Z,66.40
2023-05-19T10:35:38.108Z,66.10
2023-05-19T10:38:17.816Z,66.90
2023-05-19T10:41:04.919Z,66.30
2023-05-19T10:43:35.296Z,66.40
2023-05-19T10:46:02.763Z,67.00
2023-05-19T10:48:35.216Z,66.70
2023-05-19T10:51:06.458Z,66.40
2023-05-19T10:53:35.013Z,66.70
2023-05-19T10:56:07.740Z,66.50
2023-05-19T10:58:42.863Z,66.10
2023-05-19T11:01:15.038Z,64.70
2023-05-19T11:03:53.836Z,65.50
2023-05-19T11:06:39.420Z,65.10
2023-05-19T11:09:13.786Z,65.40
2023-05-19T11:11:54.438Z,65.50
2023-05-19T11:14:27.239Z,65.20
2023-05-19T11:16:57.949Z,65.70
2023-05-19T11:19:34.378Z,66.00
2023-05-19T11:22:09.619Z,65.20
2023-05-19T11:24:37.871Z,65.40
2023-05-19T11:27:21.512Z,66.20
2023-05-19T11:29:51.979Z,65.90
2023-05-19T11:32:21.629Z,65.70
2023-05-19T11:34:55.517Z,66.10
2023-05-19T11:37:23.236Z,65.50
2023-05-19T11:42:35.495Z,65.50
2023-05-19T11:45:04.268Z,64.00
2023-05-19T11:47:42.605Z,63.40
2023-05-19T11:50:14.629Z,63.90
2023-05-19T11:52:46.301Z,62.60
2023-05-19T11:55:19.653Z,63.40
2023-05-19T11:58:05.131Z,63.50
2023-05-19T12:00:40.960Z,62.10
2023-05-19T12:03:09.195Z,63.00
2023-05-19T12:05:43.153Z,63.30
2023-05-19T12:08:17.092Z,63.60
2023-05-19T12:10:44.355Z,63.10
2023-05-19T12:13:15.225Z,59.70
2023-05-19T12:15:42.356Z,61.00
2023-05-19T12:18:09.791Z,61.30
2023-05-19T12:20:37.750Z,60.10
2023-05-19T12:23:06.892Z,60.80
2023-05-19T12:25:40.848Z,61.10
2023-05-19T12:28:08.167Z,61.30
2023-05-19T12:30:35.790Z,61.30
2023-05-19T12:33:03.681Z,61.70
2023-05-19T12:35:36.390Z,61.90
2023-05-19T12:38:04.918Z,61.70
2023-05-19T12:40:34.571Z,61.70
2023-05-19T12:43:02.006Z,61.80
2023-05-19T12:45:33.828Z,62.00
2023-05-19T12:48:04.888Z,62.40
2023-05-19T12:50:33.076Z,62.30
2023-05-19T12:53:00.626Z,62.10
2023-05-19T12:55:27.950Z,62.40
2023-05-19T12:57:57.390Z,62.40
2023-05-19T13:00:27.867Z,63.20
2023-05-19T13:02:58.797Z,63.40
2023-05-19T13:05:28.448Z,63.20
2023-05-19T13:08:05.607Z,63.40
2023-05-19T13:10:34.571Z,63.10
2023-05-19T13:13:02.625Z,63.30
2023-05-19T13:15:34.620Z,63.30
2023-05-19T13:18:03.868Z,63.30
2023-05-19T13:20:31.219Z,63.70
2023-05-19T13:22:58.727Z,61.60
2023-05-19T13:25:26.789Z,62.60
2023-05-19T13:27:59.531Z,62.70
2023-05-19T13:30:28.119Z,62.80
2023-05-19T13:32:55.932Z,62.00
2023-05-19T13:35:23.345Z,60.80
2023-05-19T13:37:51.163Z,60.90
2023-05-19T13:40:19.241Z,61.50
2023-05-19T13:42:46.831Z,61.00
2023-05-19T13:45:14.238Z,61.50
2023-05-19T13:47:41.612Z,60.60
2023-05-19T13:50:09.191Z,61.50
2023-05-19T13:52:39.644Z,61.70
2023-05-19T13:55:07.805Z,61.00
2023-05-19T13:57:35.632Z,61.70
2023-05-19T14:00:04.644Z,61.20
2023-05-19T14:02:36.884Z,61.40
2023-05-19T14:05:08.302Z,61.20
2023-05-19T14:07:41.487Z,60.80
2023-05-19T14:10:09.360Z,60.70
2023-05-19T14:12:45.003Z,60.70
2023-05-19T14:15:42.622Z,59.40
2023-05-19T14:18:53.699Z,60.30
2023-05-19T14:21:29.377Z,60.40
2023-05-19T14:24:00.070Z,60.60
2023-05-19T14:26:29.575Z,60.60
2023-05-19T14:29:04.965Z,60.70
2023-05-19T14:31:38.159Z,61.00
2023-05-19T14:34:12.007Z,61.20
2023-05-19T14:36:45.090Z,61.10
2023-05-19T14:39:12.479Z,61.10
2023-05-19T14:41:39.694Z,61.00
2023-05-19T14:44:06.842Z,60.80
2023-05-19T14:46:34.262Z,61.20
2023-05-19T14:49:01.610Z,61.40
2023-05-19T14:51:28.836Z,61.30
2023-05-19T14:53:56.178Z,61.20
2023-05-19T14:56:26.659Z,61.00
2023-05-19T14:59:01.135Z,61.20
2023-05-19T15:01:28.309Z,61.40
2023-05-19T15:03:55.624Z,61.30
2023-05-19T15:06:23.614Z,61.30
2023-05-19T15:08:51.069Z,61.30
2023-05-19T15:11:18.231Z,61.20
2023-05-19T15:13:45.781Z,61.10
2023-05-19T15:16:17.015Z,60.90
2023-05-19T15:18:45.612Z,60.60
2023-05-19T15:21:12.969Z,60.70
2023-05-19T15:23:40.161Z,60.30
2023-05-19T15:26:08.860Z,60.70
2023-05-19T15:28:36.041Z,60.60
2023-05-19T15:31:03.511Z,59.20
2023-05-19T15:33:30.977Z,59.40
2023-05-19T15:35:58.348Z,58.70
2023-05-19T15:40:52.853Z,55.70
2023-05-19T15:43:21.862Z,54.40
2023-05-19T15:45:52.112Z,53.40
2023-05-19T15:48:19.476Z,52.50
2023-05-19T15:50:46.750Z,52.80
2023-05-19T15:53:13.983Z,52.80
2023-05-19T15:55:41.134Z,52.70
2023-05-19T15:58:08.932Z,52.90
2023-05-19T16:00:36.277Z,52.80
2023-05-19T16:03:03.738Z,52.20
2023-05-19T16:05:30.981Z,51.80
2023-05-19T16:07:58.165Z,51.90
2023-05-19T16:10:25.499Z,52.30
2023-05-19T16:12:52.706Z,51.80
2023-05-19T16:15:19.959Z,51.80
2023-05-19T16:17:47.285Z,49.70
2023-05-19T16:20:15.883Z,49.50
2023-05-19T16:22:43.189Z,48.70
2023-05-19T16:25:10.801Z,46.20
2023-05-19T16:27:40.658Z,47.10
2023-05-19T16:30:08.434Z,49.20
2023-05-19T16:32:35.781Z,50.80
2023-05-19T16:35:03.047Z,52.00
2023-05-19T16:37:30.262Z,52.60
2023-05-19T16:39:57.482Z,53.70
2023-05-19T16:42:25.243Z,53.30
2023-05-19T16:44:52.696Z,54.00
2023-05-19T16:47:20.006Z,54.50
2023-05-19T16:49:47.142Z,55.10
2023-05-19T16:52:14.260Z,55.40
2023-05-19T16:54:41.486Z,55.70
2023-05-19T16:57:08.722Z,56.00
2023-05-19T16:59:35.915Z,56.10
2023-05-19T17:02:03.548Z,56.40
2023-05-19T17:04:33.806Z,56.80
2023-05-19T17:07:01.006Z,57.50
2023-05-19T17:09:28.204Z,58.60
2023-05-19T17:12:05.724Z,57.90
2023-05-19T17:14:32.844Z,58.50
2023-05-19T17:17:02.974Z,58.50
2023-05-19T17:19:31.788Z,59.90
2023-05-19T17:21:59.320Z,59.20
2023-05-19T17:24:29.090Z,59.20
2023-05-19T17:26:56.260Z,59.50
2023-05-19T17:29:23.409Z,59.80
2023-05-19T17:31:50.646Z,59.60
2023-05-19T17:34:17.852Z,60.00
2023-05-19T17:36:45.112Z,60.30
2023-05-19T17:39:12.232Z,60.40
2023-05-19T17:41:40.088Z,60.80
2023-05-19T17:44:07.354Z,60.90
2023-05-19T17:46:34.881Z,60.90
2023-05-19T17:49:02.159Z,61.10
2023-05-19T17:51:29.740Z,61.40
2023-05-19T17:53:57.633Z,62.40
2023-05-19T17:56:25.713Z,62.20
2023-05-19T17:58:53.990Z,62.90
2023-05-19T18:01:24.209Z,63.00
2023-05-19T18:03:52.099Z,63.10
2023-05-19T18:06:20.547Z,63.90
2023-05-19T18:08:50.737Z,63.50
2023-05-19T18:11:18.821Z,63.70
2023-05-19T18:13:47.025Z,64.20
2023-05-19T18:16:14.365Z,65.00
2023-05-19T18:18:43.755Z,64.80
2023-05-19T18:21:17.840Z,64.50
2023-05-19T18:23:46.150Z,64.90
2023-05-19T18:26:14.633Z,65.40
2023-05-19T18:28:42.501Z,65.20
2023-05-19T18:31:15.644Z,65.50
2023-05-19T18:33:43.648Z,65.70
2023-05-19T18:36:10.910Z,65.70
2023-05-19T18:38:38.018Z,66.60
2023-05-19T18:41:09.318Z,66.00
2023-05-19T18:43:36.591Z,66.60
2023-05-19T18:46:03.787Z,66.60
2023-05-19T18:48:34.457Z,66.60
2023-05-19T18:51:30.771Z,66.80
2023-05-19T18:53:58.340Z,66.40
2023-05-19T18:56:28.674Z,67.10
2023-05-19T18:58:56.906Z,67.00
2023-05-19T19:01:25.164Z,67.60
2023-05-19T19:03:52.451Z,67.40
2023-05-19T19:06:23.997Z,67.50
2023-05-19T19:08:51.164Z,67.70
2023-05-19T19:11:18.437Z,68.10
2023-05-19T19:13:45.918Z,68.20
2023-05-19T19:16:13.078Z,68.60
2023-05-19T19:18:40.410Z,68.60
2023-05-19T19:21:07.693Z,68.50
2023-05-19T19:23:34.928Z,69.20
2023-05-19T19:26:02.318Z,69.20
2023-05-19T19:28:30.276Z,69.20
2023-05-19T19:30:57.556Z,69.10
2023-05-19T19:33:24.833Z,69.30
2023-05-19T19:35:52.170Z,69.30
2023-05-19T19:38:19.392Z,69.80
2023-05-19T19:40:46.672Z,70.70
2023-05-19T19:43:22.609Z,70.00
2023-05-19T19:46:00.013Z,70.90
2023-05-19T19:48:28.066Z,70.30
2023-05-19T19:50:56.046Z,70.30
2023-05-19T19:53:23.843Z,70.30
2023-05-19T19:56:01.608Z,70.50
2023-05-19T19:58:29.766Z,70.60
2023-05-19T20:00:58.819Z,71.00
2023-05-19T20:03:26.931Z,71.80
2023-05-19T20:06:15.415Z,71.10
2023-05-19T20:08:42.603Z,71.20
2023-05-19T20:11:10.049Z,71.50
2023-05-19T20:13:37.298Z,71.40
2023-05-19T20:16:04.734Z,72.00
2023-05-19T20:19:11.508Z,71.80
2023-05-19T20:21:39.045Z,72.00
2023-05-19T20:24:06.598Z,72.00
2023-05-19T20:26:34.111Z,72.10
2023-05-19T20:29:01.453Z,72.10
2023-05-19T20:31:28.959Z,72.30
2023-05-19T20:33:56.309Z,73.00
2023-05-19T20:36:23.573Z,72.50
2023-05-19T20:38:51.815Z,72.60
2023-05-19T20:41:19.152Z,72.60
2023-05-19T20:43:46.618Z,74.30
2023-05-19T20:46:14.002Z,75.70
2023-05-19T20:48:41.566Z,76.80
2023-05-19T20:51:08.953Z,78.00
2023-05-19T20:53:36.703Z,78.70
2023-05-19T20:56:05.300Z,79.30
2023-05-19T20:58:33.050Z,79.90
2023-05-19T21:01:00.704Z,80.50
2023-05-19T21:03:28.728Z,80.80
2023-05-19T21:05:56.476Z,81.40
2023-05-19T21:08:24.730Z,81.90
2023-05-19T21:10:52.187Z,82.30
2023-05-19T21:13:19.579Z,82.60
2023-05-19T21:15:47.955Z,83.00
2023-05-19T21:18:15.264Z,83.30
2023-05-19T21:20:42.670Z,83.80
2023-05-19T21:23:09.957Z,83.90
2023-05-19T21:25:37.257Z,84.40
2023-05-19T21:28:05.045Z,84.70
2023-05-19T21:30:32.700Z,85.00
2023-05-19T21:33:00.274Z,85.30
2023-05-19T21:35:49.618Z,85.50
2023-05-19T21:38:23.987Z,88.80
2023-05-19T21:40:53.352Z,87.80
2023-05-19T21:43:21.931Z,87.50
2023-05-19T21:45:49.486Z,87.50
2023-05-19T21:48:16.920Z,87.50
2023-05-19T21:50:44.486Z,87.50
2023-05-19T21:53:11.864Z,87.70
2023-05-19T21:55:39.469Z,87.80
2023-05-19T21:58:06.841Z,88.10
2023-05-19T22:00:34.521Z,88.30
2023-05-19T22:03:02.202Z,88.50
2023-05-19T22:05:30.510Z,88.50
2023-05-19T22:07:58.282Z,88.50
2023-05-19T22:10:25.602Z,88.40
2023-05-19T22:12:52.762Z,88.40
2023-05-19T22:15:20.163Z,88.70
2023-05-19T22:17:47.509Z,88.20
2023-05-19T22:20:14.752Z,88.10
2023-05-19T22:22:42.862Z,88.10
2023-05-19T22:25:10.010Z,87.70
2023-05-19T22:27:37.245Z,87.60
2023-05-19T22:30:04.837Z,87.50
2023-05-19T22:32:32.261Z,87.50
2023-05-19T22:34:59.492Z,87.20
2023-05-19T22:37:27.853Z,87.20
2023-05-19T22:39:55.173Z,87.00
2023-05-19T22:42:22.358Z,87.00
2023-05-19T22:44:49.636Z,86.80
2023-05-19T22:47:16.973Z,86.70
2023-05-19T22:49:44.246Z,86.50
2023-05-19T22:52:11.697Z,86.50
2023-05-19T22:54:38.981Z,86.40
2023-05-19T22:57:06.564Z,86.20
2023-05-19T22:59:33.827Z,86.30
2023-05-19T23:02:01.388Z,86.20
2023-05-19T23:04:28.702Z,86.20
2023-05-19T23:06:56.119Z,86.30
2023-05-19T23:09:23.260Z,86.10
2023-05-19T23:11:50.498Z,86.20
2023-05-19T23:14:20.169Z,86.10
2023-05-19T23:16:48.314Z,86.10
2023-05-19T23:19:17.136Z,86.80
2023-05-19T23:21:45.980Z,86.60
2023-05-19T23:24:13.166Z,86.30
2023-05-19T23:26:44.010Z,86.10
2023-05-19T23:29:18.466Z,86.50
2023-05-19T23:31:45.881Z,86.00
2023-05-19T23:34:13.170Z,85.80
2023-05-19T23:36:40.470Z,85.60
2023-05-19T23:39:07.790Z,85.90
2023-05-19T23:41:35.147Z,85.90
2023-05-19T23:44:02.456Z,85.50
2023-05-19T23:46:29.916Z,86.00
2023-05-19T23:48:57.268Z,87.20
2023-05-19T23:51:24.575Z,86.80
2023-05-19T23:53:51.854Z,87.10
2023-05-19T23:56:19.208Z,87.10
2023-05-19T23:58:46.593Z,87.10
